Time;durP1;ratioP1;P1;durP2;ratioP2;P2;SDS_P1;SDS_P2;PMS_P1;PMS_P2;Temp;Humidity;BMP_temperature;BMP_pressure;BME280_temperature;BME280_humidity;BME280_pressure;Samples;Min_cycle;Max_cycle;Signal;HPM_P1;HPM_P2
2022/07/18 00:00:15;;;;;;;7.57;6.13;;;17.70;81.20;;;;;;5070996;28;20049;-77
2022/07/18 00:02:41;;;;;;;12.82;7.05;;;17.70;81.50;;;;;;5071050;28;20048;-75
2022/07/18 00:05:07;;;;;;;8.20;6.18;;;17.60;81.50;;;;;;5054302;28;20048;-78
2022/07/18 00:07:33;;;;;;;8.50;6.60;;;17.60;82.00;;;;;;5054305;28;20037;-78
2022/07/18 00:09:58;;;;;;;7.93;6.10;;;17.60;82.30;;;;;;5054040;28;20052;-74
2022/07/18 00:12:24;;;;;;;10.63;6.85;;;17.60;82.20;;;;;;5054700;28;20029;-76
2022/07/18 00:14:50;;;;;;;9.40;6.82;;;17.50;81.90;;;;;;5054171;28;20041;-76
2022/07/18 00:17:16;;;;;;;8.07;6.82;;;17.50;82.10;;;;;;5070797;28;20048;-80
2022/07/18 00:19:42;;;;;;;9.68;7.35;;;17.50;82.10;;;;;;5070843;28;20044;-76
2022/07/18 00:22:08;;;;;;;10.65;7.43;;;17.50;82.10;;;;;;5054355;28;20043;-75
2022/07/18 00:24:33;;;;;;;11.10;6.97;;;17.50;82.20;;;;;;5073994;28;20535;-75
2022/07/18 00:27:00;;;;;;;7.50;6.72;;;17.40;82.40;;;;;;5094123;28;20131;-77
2022/07/18 00:29:26;;;;;;;7.07;6.38;;;17.40;82.30;;;;;;5060463;28;20040;-77
2022/07/18 00:31:52;;;;;;;9.05;7.30;;;17.40;82.30;;;;;;5094220;28;20079;-79
2022/07/18 00:34:18;;;;;;;6.78;5.90;;;17.30;82.50;;;;;;5077148;28;20072;-74
2022/07/18 00:36:43;;;;;;;7.13;6.45;;;17.30;82.80;;;;;;5077023;28;20105;-77
2022/07/18 00:39:09;;;;;;;9.48;7.15;;;17.20;84.30;;;;;;5060126;28;20044;-73
2022/07/18 00:41:35;;;;;;;9.13;7.15;;;17.10;83.90;;;;;;5077178;28;20048;-74
2022/07/18 00:44:01;;;;;;;9.88;7.88;;;17.10;83.60;;;;;;5077121;28;20040;-74
2022/07/18 00:46:27;;;;;;;12.52;8.68;;;17.10;84.20;;;;;;5077050;28;20066;-73
2022/07/18 00:48:53;;;;;;;9.90;7.93;;;17.10;84.60;;;;;;5093561;28;20046;-76
2022/07/18 00:51:19;;;;;;;9.18;7.85;;;17.10;84.90;;;;;;5076714;28;20086;-76
2022/07/18 00:53:47;;;;;;;9.32;8.30;;;17.10;84.40;;;;;;5060140;28;20047;-77
2022/07/18 00:56:16;;;;;;;9.68;7.93;;;17.10;83.80;;;;;;5076675;28;20083;-75
2022/07/18 00:58:43;;;;;;;9.77;8.15;;;17.10;83.70;;;;;;5059827;28;20035;-78
2022/07/18 01:03:54;;;;;;;8.68;7.85;;;17.10;83.80;;;;;;5093615;28;20097;-77
2022/07/18 01:06:20;;;;;;;8.77;7.63;;;17.10;83.70;;;;;;5093303;28;20135;-78
2022/07/18 01:08:46;;;;;;;10.25;7.38;;;17.10;83.50;;;;;;5059961;28;20458;-77
2022/07/18 01:11:13;;;;;;;9.25;8.25;;;17.10;83.60;;;;;;5093381;28;20559;-76
2022/07/18 01:13:39;;;;;;;13.32;7.47;;;17.20;83.30;;;;;;5093377;28;20503;-75
2022/07/18 01:16:05;;;;;;;9.50;7.78;;;17.10;83.00;;;;;;5076452;28;20043;-76
2022/07/18 01:18:31;;;;;;;14.45;8.30;;;17.10;83.20;;;;;;5059577;28;20055;-74
2022/07/18 01:20:56;;;;;;;10.70;8.75;;;17.10;82.90;;;;;;5076263;28;20044;-76
2022/07/18 01:23:22;;;;;;;11.50;8.43;;;17.10;82.80;;;;;;5075725;28;20132;-80
2022/07/18 01:25:48;;;;;;;13.73;8.75;;;17.10;82.60;;;;;;5092980;28;20117;-77
2022/07/18 01:28:14;;;;;;;11.68;9.32;;;17.00;82.50;;;;;;5093089;28;20040;-76
2022/07/18 01:30:40;;;;;;;9.65;8.65;;;17.10;82.30;;;;;;5059380;28;20050;-76
2022/07/18 01:33:06;;;;;;;10.73;9.07;;;17.00;82.30;;;;;;5093056;28;20455;-76
2022/07/18 01:35:32;;;;;;;13.98;8.88;;;17.00;82.10;;;;;;5075880;28;20119;-75
2022/07/18 01:38:01;;;;;;;10.07;8.35;;;17.00;81.90;;;;;;5059530;28;20048;-74
2022/07/18 01:40:27;;;;;;;10.73;8.60;;;17.00;81.80;;;;;;5075869;28;20082;-74
2022/07/18 01:42:53;;;;;;;9.35;8.35;;;17.00;81.70;;;;;;5059402;28;20071;-77
2022/07/18 01:45:20;;;;;;;12.30;9.30;;;17.00;81.70;;;;;;5059278;28;20078;-77
2022/07/18 01:47:46;;;;;;;13.82;8.63;;;17.00;81.70;;;;;;5092269;28;20048;-74
2022/07/18 01:50:12;;;;;;;12.98;8.90;;;16.90;81.60;;;;;;5075319;28;20123;-78
2022/07/18 01:52:39;;;;;;;11.23;8.82;;;16.90;81.40;;;;;;5075798;28;20040;-73
2022/07/18 01:55:07;;;;;;;11.40;9.10;;;16.90;81.50;;;;;;5058892;28;20047;-74
2022/07/18 01:57:32;;;;;;;11.98;8.50;;;16.80;81.60;;;;;;5058770;28;20040;-80
2022/07/18 01:59:58;;;;;;;11.68;9.38;;;16.70;81.50;;;;;;5075914;28;20043;-76
2022/07/18 02:02:24;;;;;;;14.23;9.10;;;16.60;81.60;;;;;;5076276;28;20055;-74
2022/07/18 02:05:02;;;;;;;11.77;8.50;;;16.60;81.50;;;;;;5075696;28;20484;-76
2022/07/18 02:07:38;;;;;;;12.85;9.50;;;16.60;81.30;;;;;;5075450;28;20403;-76
2022/07/18 02:10:16;;;;;;;12.70;9.18;;;16.50;81.70;;;;;;5092730;28;20044;-74
2022/07/18 02:12:42;;;;;;;13.93;9.20;;;16.50;81.60;;;;;;5059052;28;20392;-76
2022/07/18 02:15:10;;;;;;;11.65;8.85;;;16.50;81.70;;;;;;5092121;28;20040;-75
2022/07/18 02:17:36;;;;;;;10.88;8.32;;;16.40;81.60;;;;;;5092774;28;20044;-76
2022/07/18 02:20:03;;;;;;;10.90;8.48;;;16.40;81.90;;;;;;5075328;28;20059;-75
2022/07/18 02:22:28;;;;;;;12.02;9.25;;;16.40;81.70;;;;;;5075317;28;20043;-80
2022/07/18 02:24:54;;;;;;;11.18;8.75;;;16.40;82.20;;;;;;5075151;28;20186;-77
2022/07/18 02:27:20;;;;;;;10.05;8.70;;;16.40;82.10;;;;;;5075176;28;20055;-77
2022/07/18 02:29:46;;;;;;;12.60;9.48;;;16.30;81.80;;;;;;5058777;28;20055;-76
2022/07/18 02:32:12;;;;;;;10.68;8.98;;;16.20;81.70;;;;;;5092050;28;20047;-77
2022/07/18 02:34:38;;;;;;;12.25;8.65;;;16.20;81.80;;;;;;5060310;28;20036;-73
2022/07/18 02:37:04;;;;;;;15.90;9.82;;;16.20;81.90;;;;;;5079555;28;20044;-78
2022/07/18 02:39:30;;;;;;;14.38;9.73;;;16.20;81.90;;;;;;5079220;28;20044;-77
2022/07/18 02:41:56;;;;;;;11.65;8.98;;;16.20;82.00;;;;;;5079319;28;20055;-76
2022/07/18 02:44:23;;;;;;;12.27;9.57;;;16.20;81.90;;;;;;5096127;28;20097;-77
2022/07/18 02:46:49;;;;;;;11.50;8.90;;;16.20;82.00;;;;;;5095990;28;20044;-76
2022/07/18 02:49:27;;;;;;;11.02;8.65;;;16.20;81.90;;;;;;5062369;28;20076;-76
2022/07/18 02:52:05;;;;;;;12.60;9.38;;;16.10;81.90;;;;;;5079358;28;20066;-76
2022/07/18 02:54:33;;;;;;;12.10;7.47;;;16.00;82.50;;;;;;5079010;28;20035;-76
2022/07/18 02:56:59;;;;;;;15.75;9.63;;;16.00;82.40;;;;;;5096781;28;20055;-77
2022/07/18 02:59:26;;;;;;;11.90;8.55;;;16.00;81.80;;;;;;5079001;28;20383;-76
2022/07/18 03:01:52;;;;;;;13.05;8.23;;;16.00;81.80;;;;;;5096069;28;20048;-74
2022/07/18 03:04:19;;;;;;;10.27;8.70;;;16.00;81.80;;;;;;5079115;28;20372;-76
2022/07/18 03:06:46;;;;;;;11.27;8.48;;;16.00;81.90;;;;;;5095658;28;20508;-75
2022/07/18 03:09:12;;;;;;;12.10;8.73;;;16.00;82.10;;;;;;5062018;28;20081;-76
2022/07/18 03:11:37;;;;;;;13.05;8.88;;;16.00;81.70;;;;;;5095911;28;20417;-76
2022/07/18 03:14:03;;;;;;;9.93;7.38;;;16.00;81.60;;;;;;5078587;28;20115;-77
2022/07/18 03:16:29;;;;;;;14.95;9.25;;;16.00;81.20;;;;;;5061986;28;20086;-76
2022/07/18 03:18:55;;;;;;;11.52;8.73;;;16.00;80.80;;;;;;5095440;28;20040;-76
2022/07/18 03:21:20;;;;;;;12.68;9.23;;;16.00;80.50;;;;;;5095763;28;20197;-75
2022/07/18 03:23:46;;;;;;;10.20;8.35;;;16.00;80.30;;;;;;5045536;28;20044;-76
2022/07/18 03:26:12;;;;;;;9.27;7.50;;;16.10;80.50;;;;;;5061491;28;20496;-74
2022/07/18 03:28:38;;;;;;;10.02;8.13;;;16.00;80.10;;;;;;5095108;28;20067;-75
2022/07/18 03:31:04;;;;;;;11.40;8.95;;;16.00;80.10;;;;;;5078511;28;20389;-76
2022/07/18 03:33:30;;;;;;;12.10;8.18;;;16.00;79.90;;;;;;5078480;28;20044;-77
2022/07/18 03:35:56;;;;;;;11.20;8.63;;;16.00;80.10;;;;;;5095454;28;20044;-78
2022/07/18 03:38:21;;;;;;;10.93;9.35;;;16.00;80.10;;;;;;5061543;28;20479;-73
2022/07/18 03:40:47;;;;;;;15.32;9.90;;;16.00;80.20;;;;;;5077978;28;20105;-75
2022/07/18 03:43:13;;;;;;;15.18;8.73;;;15.90;80.60;;;;;;5061532;28;20044;-76
2022/07/18 03:45:38;;;;;;;10.45;7.90;;;15.90;80.20;;;;;;5094769;28;20036;-77
2022/07/18 03:48:04;;;;;;;11.05;9.02;;;15.90;80.10;;;;;;5077979;28;20040;-76
2022/07/18 03:50:30;;;;;;;10.73;8.55;;;16.00;80.20;;;;;;5094665;28;20044;-74
2022/07/18 03:52:56;;;;;;;11.15;8.90;;;15.90;80.30;;;;;;5077875;28;20040;-75
2022/07/18 03:55:22;;;;;;;11.13;9.00;;;15.90;80.30;;;;;;5061425;28;20035;-75
2022/07/18 03:57:48;;;;;;;12.25;8.65;;;15.90;80.10;;;;;;5077799;28;20048;-76
2022/07/18 04:00:14;;;;;;;9.00;7.78;;;16.00;80.10;;;;;;5078145;28;20035;-75
2022/07/18 04:02:42;;;;;;;10.80;8.40;;;16.00;80.30;;;;;;5094386;28;20101;-76
2022/07/18 04:05:09;;;;;;;14.30;9.90;;;15.90;80.60;;;;;;5077811;28;20450;-76
2022/07/18 04:07:35;;;;;;;11.98;8.45;;;15.90;80.50;;;;;;5077397;28;20089;-76
2022/07/18 04:10:01;;;;;;;13.13;9.15;;;15.80;80.70;;;;;;5094320;28;20044;-74
2022/07/18 04:12:26;;;;;;;10.38;7.90;;;15.80;80.70;;;;;;5044191;28;20043;-73
2022/07/18 04:14:52;;;;;;;11.00;8.50;;;15.80;80.70;;;;;;5077389;28;20043;-76
2022/07/18 04:17:18;;;;;;;12.05;9.35;;;15.80;80.40;;;;;;5044309;28;20051;-75
2022/07/18 04:19:43;;;;;;;10.13;8.48;;;15.80;80.20;;;;;;5061004;28;20459;-75
2022/07/18 04:22:09;;;;;;;10.43;8.20;;;15.80;80.20;;;;;;5077210;28;20059;-77
2022/07/18 04:24:35;;;;;;;12.52;8.48;;;15.90;79.90;;;;;;5076842;28;20036;-74
2022/07/18 04:27:00;;;;;;;11.10;8.05;;;15.90;80.40;;;;;;5077028;28;20047;-74
2022/07/18 04:29:26;;;;;;;11.55;9.15;;;15.90;80.00;;;;;;5060339;28;20074;-77
2022/07/18 04:31:52;;;;;;;13.52;9.13;;;16.00;80.10;;;;;;5077252;28;20456;-77
2022/07/18 04:34:17;;;;;;;10.93;8.65;;;16.00;80.30;;;;;;5076867;28;20488;-74
2022/07/18 04:36:43;;;;;;;15.98;8.93;;;16.00;80.30;;;;;;5076976;28;20086;-78
2022/07/18 04:39:09;;;;;;;14.43;9.93;;;16.00;80.20;;;;;;5077361;28;20051;-74
2022/07/18 04:41:34;;;;;;;11.27;8.77;;;16.00;80.30;;;;;;5060525;28;20509;-77
2022/07/18 04:44:00;;;;;;;10.75;8.38;;;16.00;80.20;;;;;;5077136;28;20040;-74
2022/07/18 04:46:26;;;;;;;10.27;8.48;;;16.10;80.10;;;;;;5077103;28;20063;-75
2022/07/18 04:48:51;;;;;;;11.50;8.93;;;16.10;80.00;;;;;;5078149;28;20048;-75
2022/07/18 04:51:17;;;;;;;11.43;8.15;;;16.10;80.10;;;;;;5078891;28;20040;-75
2022/07/18 04:53:43;;;;;;;13.38;9.35;;;16.20;80.00;;;;;;5076737;28;20036;-74
2022/07/18 04:56:08;;;;;;;11.07;8.60;;;16.30;80.30;;;;;;5059975;28;20035;-76
2022/07/18 04:58:34;;;;;;;11.05;8.35;;;16.30;80.10;;;;;;5076278;28;20699;-77
2022/07/18 05:01:00;;;;;;;14.25;8.82;;;16.30;80.30;;;;;;5060041;28;20472;-75
2022/07/18 05:03:25;;;;;;;9.48;8.02;;;16.30;80.50;;;;;;5060099;28;20478;-77
2022/07/18 05:05:51;;;;;;;15.35;8.93;;;16.30;80.50;;;;;;5059890;28;20085;-76
2022/07/18 05:08:17;;;;;;;9.63;8.38;;;16.30;80.60;;;;;;5076750;28;20040;-74
2022/07/18 05:10:42;;;;;;;12.93;9.00;;;16.30;80.10;;;;;;5076814;28;20038;-73
2022/07/18 05:13:08;;;;;;;9.77;7.75;;;16.40;80.20;;;;;;5060284;28;20047;-75
2022/07/18 05:15:34;;;;;;;12.05;8.85;;;16.40;80.30;;;;;;5059782;28;20540;-73
2022/07/18 05:17:59;;;;;;;9.95;7.72;;;16.50;79.90;;;;;;5076779;28;20114;-73
2022/07/18 05:20:26;;;;;;;11.73;8.05;;;16.50;79.80;;;;;;5092947;28;20095;-75
2022/07/18 05:22:53;;;;;;;13.65;9.60;;;16.50;79.80;;;;;;5076439;28;20051;-76
2022/07/18 05:25:22;;;;;;;13.52;9.00;;;16.50;80.10;;;;;;5062523;28;20070;-74
2022/07/18 05:27:47;;;;;;;11.27;8.32;;;16.60;79.70;;;;;;5109869;28;20044;-73
2022/07/18 05:30:14;;;;;;;11.20;8.32;;;16.60;79.50;;;;;;5075906;28;20518;-75
2022/07/18 05:32:41;;;;;;;10.50;8.15;;;16.70;79.20;;;;;;5110135;28;20036;-74
2022/07/18 05:35:08;;;;;;;11.68;8.65;;;16.70;80.00;;;;;;5076504;28;20028;-75
2022/07/18 05:37:35;;;;;;;10.20;8.00;;;16.70;80.00;;;;;;5076282;28;20036;-78
2022/07/18 05:40:06;;;;;;;11.27;8.35;;;16.70;79.50;;;;;;5109813;28;20136;-77
2022/07/18 05:42:32;;;;;;;11.73;8.20;;;16.80;79.30;;;;;;5076204;28;20059;-74
2022/07/18 05:44:58;;;;;;;9.27;7.00;;;16.90;79.30;;;;;;5109738;28;20472;-75
2022/07/18 05:47:24;;;;;;;12.18;8.07;;;17.00;79.20;;;;;;5109658;28;20047;-76
2022/07/18 05:49:49;;;;;;;11.55;8.10;;;17.00;78.90;;;;;;5109538;28;20040;-77
2022/07/18 05:52:15;;;;;;;8.55;7.32;;;17.10;78.90;;;;;;5109614;28;20047;-76
2022/07/18 05:54:41;;;;;;;9.82;6.88;;;17.10;78.60;;;;;;5109792;28;20036;-74
2022/07/18 05:57:06;;;;;;;8.65;6.38;;;17.20;78.30;;;;;;5075926;28;20036;-76
2022/07/18 05:59:32;;;;;;;10.75;6.55;;;17.20;78.00;;;;;;5109669;28;20047;-73
2022/07/18 06:01:58;;;;;;;9.45;6.30;;;17.30;77.90;;;;;;5075850;28;20047;-75
2022/07/18 06:04:23;;;;;;;10.45;6.50;;;17.40;77.70;;;;;;5109693;28;20446;-76
2022/07/18 06:06:49;;;;;;;9.23;6.32;;;17.50;77.30;;;;;;5109501;28;20081;-76
2022/07/18 06:09:16;;;;;;;8.15;6.40;;;17.50;77.10;;;;;;5109399;28;20055;-75
2022/07/18 06:11:42;;;;;;;9.77;6.28;;;17.60;77.20;;;;;;5092724;28;20032;-75
2022/07/18 06:14:07;;;;;;;11.48;6.50;;;17.60;77.30;;;;;;5109584;28;20039;-74
2022/07/18 06:16:33;;;;;;;8.60;6.28;;;17.70;77.00;;;;;;5109127;28;20477;-75
2022/07/18 06:18:59;;;;;;;8.27;5.40;;;17.80;76.90;;;;;;5109414;28;20040;-78
2022/07/18 06:21:25;;;;;;;10.55;6.07;;;17.90;76.20;;;;;;5106797;28;20028;-75
2022/07/18 06:23:51;;;;;;;9.45;6.10;;;18.00;76.30;;;;;;5082631;28;20032;-77
2022/07/18 06:26:16;;;;;;;6.90;5.65;;;18.10;76.00;;;;;;5072411;28;20155;-76
2022/07/18 06:28:42;;;;;;;8.30;5.68;;;18.20;75.40;;;;;;5108424;28;20085;-76
2022/07/18 06:31:08;;;;;;;10.20;5.75;;;18.20;74.90;;;;;;5075102;28;20036;-77
2022/07/18 06:33:33;;;;;;;9.48;5.88;;;18.30;74.20;;;;;;5109174;28;20471;-75
2022/07/18 06:35:59;;;;;;;11.48;5.70;;;18.40;74.50;;;;;;5075384;28;20477;-74
2022/07/18 06:38:25;;;;;;;8.05;5.10;;;18.50;72.80;;;;;;5108974;28;20047;-77
2022/07/18 06:40:50;;;;;;;12.00;6.03;;;18.70;73.20;;;;;;5109184;28;20100;-76
2022/07/18 06:43:19;;;;;;;9.35;5.63;;;18.80;72.20;;;;;;5108851;28;20496;-76
2022/07/18 06:45:48;;;;;;;6.72;5.50;;;18.90;70.20;;;;;;5059132;28;20480;-76
2022/07/18 06:48:15;;;;;;;7.65;5.57;;;19.10;70.70;;;;;;5108887;28;20132;-76
2022/07/18 06:50:41;;;;;;;8.00;5.63;;;19.10;68.70;;;;;;5108324;28;20051;-79
2022/07/18 06:53:07;;;;;;;8.38;5.45;;;19.20;69.00;;;;;;5108496;28;20109;-76
2022/07/18 06:55:33;;;;;;;10.10;5.13;;;19.30;69.50;;;;;;5074624;28;20055;-75
2022/07/18 06:57:59;;;;;;;7.95;5.40;;;19.40;69.20;;;;;;5108211;28;20487;-76
2022/07/18 07:00:27;;;;;;;11.48;5.55;;;19.50;68.40;;;;;;5108612;28;20033;-76
2022/07/18 07:02:53;;;;;;;8.82;4.60;;;19.50;68.90;;;;;;5108709;28;20055;-76
2022/07/18 07:05:20;;;;;;;7.88;5.47;;;19.60;68.10;;;;;;5108352;28;20403;-76
2022/07/18 07:07:46;;;;;;;10.73;5.40;;;19.70;68.60;;;;;;5074702;28;20036;-76
2022/07/18 07:10:12;;;;;;;8.63;5.05;;;19.80;68.10;;;;;;5074744;28;20076;-75
2022/07/18 07:12:50;;;;;;;8.95;5.65;;;19.90;68.30;;;;;;5074800;28;20040;-76
2022/07/18 07:15:20;;;;;;;9.70;5.40;;;19.90;68.60;;;;;;5074793;28;20055;-75
2022/07/18 07:17:46;;;;;;;10.10;5.88;;;19.90;68.40;;;;;;5091293;28;20079;-75
2022/07/18 07:20:12;;;;;;;6.93;5.07;;;20.00;68.20;;;;;;5109285;28;20071;-76
2022/07/18 07:22:46;;;;;;;8.70;5.40;;;19.90;66.60;;;;;;5112017;28;20055;-76
2022/07/18 07:25:11;;;;;;;8.95;5.22;;;20.00;67.80;;;;;;5098400;28;20063;-76
2022/07/18 07:27:37;;;;;;;8.90;5.03;;;20.10;68.20;;;;;;5094818;28;20097;-75
2022/07/18 07:30:04;;;;;;;7.20;4.70;;;20.20;67.70;;;;;;5095086;28;20036;-77
2022/07/18 07:32:34;;;;;;;9.20;5.43;;;20.40;67.20;;;;;;5094805;28;20044;-77
2022/07/18 07:35:00;;;;;;;6.18;4.55;;;20.50;66.50;;;;;;5078132;28;20483;-78
2022/07/18 07:37:26;;;;;;;6.75;4.43;;;20.70;66.70;;;;;;5077745;28;20076;-77
2022/07/18 07:39:51;;;;;;;6.60;4.10;;;20.80;66.40;;;;;;5077751;28;20088;-78
2022/07/18 07:42:17;;;;;;;11.00;4.75;;;20.90;64.80;;;;;;5077823;28;20128;-77
2022/07/18 07:44:43;;;;;;;9.10;4.50;;;21.00;64.90;;;;;;5077643;28;20040;-77
2022/07/18 07:47:08;;;;;;;6.50;3.63;;;21.20;63.00;;;;;;5077627;28;20047;-77
2022/07/18 07:49:34;;;;;;;9.00;4.30;;;21.40;60.60;;;;;;5094697;28;20123;-77
2022/07/18 07:52:00;;;;;;;5.68;3.80;;;21.50;60.10;;;;;;5077532;28;20047;-78
2022/07/18 07:54:26;;;;;;;6.60;3.58;;;21.50;59.60;;;;;;5094387;28;20040;-78
2022/07/18 07:56:52;;;;;;;5.45;3.55;;;21.60;58.80;;;;;;5077937;28;20040;-78
2022/07/18 07:59:17;;;;;;;6.68;3.78;;;21.80;58.30;;;;;;5094452;28;20079;-78
2022/07/18 08:01:43;;;;;;;7.55;4.32;;;22.00;58.80;;;;;;5060948;28;20509;-77
2022/07/18 08:04:09;;;;;;;6.55;3.58;;;22.10;56.20;;;;;;5077378;28;20065;-77
2022/07/18 08:06:34;;;;;;;9.48;3.55;;;22.40;57.50;;;;;;5077231;28;20444;-78
2022/07/18 08:09:00;;;;;;;8.40;3.78;;;22.50;57.30;;;;;;5093969;28;20039;-77
2022/07/18 08:11:28;;;;;;;6.05;3.75;;;22.70;57.00;;;;;;5077622;28;20111;-77
2022/07/18 08:13:54;;;;;;;7.03;3.80;;;22.80;55.70;;;;;;5060764;28;20048;-78
2022/07/18 08:16:20;;;;;;;6.30;3.60;;;23.00;53.90;;;;;;5077112;28;20400;-77
2022/07/18 08:18:45;;;;;;;4.80;3.22;;;23.10;53.50;;;;;;5077038;28;20127;-78
2022/07/18 08:21:12;;;;;;;8.25;3.08;;;23.20;54.80;;;;;;5093862;28;20071;-77
2022/07/18 08:23:37;;;;;;;5.70;3.00;;;23.40;54.30;;;;;;5093817;28;20089;-78
2022/07/18 08:26:03;;;;;;;4.72;2.47;;;23.50;53.10;;;;;;5093622;28;20056;-77
2022/07/18 08:28:29;;;;;;;4.03;2.60;;;23.70;50.60;;;;;;5060146;28;20052;-78
2022/07/18 08:30:55;;;;;;;5.85;2.15;;;23.80;49.60;;;;;;5110609;28;20047;-77
2022/07/18 08:33:20;;;;;;;6.13;2.60;;;23.90;50.30;;;;;;5076853;28;20036;-76
2022/07/18 08:35:46;;;;;;;4.85;2.30;;;23.90;48.80;;;;;;5110535;28;20066;-77
2022/07/18 08:38:12;;;;;;;6.40;2.30;;;24.00;49.80;;;;;;5110778;28;20086;-78
2022/07/18 08:40:38;;;;;;;8.27;2.38;;;24.10;50.30;;;;;;5110411;28;20376;-78
2022/07/18 08:43:04;;;;;;;3.75;2.45;;;24.20;48.00;;;;;;5076583;28;20044;-77
2022/07/18 08:45:30;;;;;;;8.07;2.70;;;24.20;47.20;;;;;;5110360;28;20050;-78
2022/07/18 08:47:55;;;;;;;6.32;2.42;;;24.40;48.80;;;;;;5110420;28;20416;-77
2022/07/18 08:50:22;;;;;;;5.55;2.25;;;24.50;48.30;;;;;;5076372;28;20494;-78
2022/07/18 08:52:49;;;;;;;10.70;2.53;;;24.60;48.30;;;;;;5110616;28;20039;-77
2022/07/18 08:55:15;;;;;;;5.45;2.45;;;24.70;48.30;;;;;;5110508;28;20119;-78
2022/07/18 08:57:41;;;;;;;6.13;2.15;;;24.80;47.20;;;;;;5076828;28;20551;-78
2022/07/18 09:00:10;;;;;;;7.10;2.78;;;24.70;47.70;;;;;;5076142;28;20420;-77
2022/07/18 09:02:36;;;;;;;5.75;2.80;;;24.70;47.50;;;;;;5110013;28;20075;-78
2022/07/18 09:05:03;;;;;;;3.92;2.55;;;24.80;48.10;;;;;;5109919;28;20082;-77
2022/07/18 09:07:32;;;;;;;5.35;2.58;;;24.90;47.70;;;;;;5075936;28;20101;-76
2022/07/18 09:10:00;;;;;;;9.80;2.70;;;25.00;48.40;;;;;;5110128;28;20032;-76
2022/07/18 09:12:28;;;;;;;6.85;2.55;;;25.10;48.20;;;;;;5109855;28;20494;-76
2022/07/18 09:14:54;;;;;;;5.22;2.50;;;25.10;46.70;;;;;;5109838;28;20488;-77
2022/07/18 09:17:24;;;;;;;4.68;2.60;;;25.20;46.70;;;;;;5059502;28;20048;-77
2022/07/18 09:20:01;;;;;;;7.78;2.80;;;25.40;47.00;;;;;;5092647;28;20165;-77
2022/07/18 09:22:32;;;;;;;7.97;2.85;;;25.40;45.80;;;;;;5109677;28;20048;-77
2022/07/18 09:25:12;;;;;;;6.78;2.80;;;25.40;46.70;;;;;;5078430;28;20527;-77
2022/07/18 09:27:43;;;;;;;6.00;2.60;;;25.50;46.60;;;;;;5096066;28;20437;-76
2022/07/18 09:30:29;;;;;;;7.22;3.20;;;25.60;47.50;;;;;;5112885;28;20530;-78
2022/07/18 09:33:02;;;;;;;4.97;2.92;;;25.70;47.80;;;;;;5079383;28;20065;-78
2022/07/18 09:35:33;;;;;;;5.18;2.70;;;25.90;47.60;;;;;;5112887;28;20051;-79
2022/07/18 09:38:05;;;;;;;6.53;2.63;;;25.90;46.90;;;;;;5096064;28;20048;-78
2022/07/18 09:40:34;;;;;;;4.00;2.47;;;25.90;46.50;;;;;;5112566;28;20047;-79
2022/07/18 09:43:05;;;;;;;5.18;2.42;;;26.00;46.00;;;;;;5112618;28;20104;-76
2022/07/18 09:45:36;;;;;;;6.10;2.33;;;26.10;44.90;;;;;;5079075;28;20429;-79
2022/07/18 09:48:11;;;;;;;4.65;2.70;;;26.20;45.40;;;;;;5112517;28;20529;-79
2022/07/18 09:50:36;;;;;;;5.18;2.50;;;26.20;44.80;;;;;;5112689;28;20036;-77
2022/07/18 09:53:06;;;;;;;5.68;2.45;;;26.20;44.30;;;;;;5112569;28;20043;-77
2022/07/18 09:55:33;;;;;;;12.00;2.55;;;26.30;44.40;;;;;;5112498;28;20118;-78
2022/07/18 09:58:04;;;;;;;5.00;2.40;;;26.40;44.20;;;;;;5078625;28;20047;-78
2022/07/18 10:00:32;;;;;;;5.80;2.63;;;26.40;43.90;;;;;;5112624;28;20120;-77
2022/07/18 10:02:59;;;;;;;5.72;2.50;;;26.50;43.00;;;;;;5078797;28;20097;-78
2022/07/18 10:05:31;;;;;;;6.03;2.63;;;26.60;43.60;;;;;;5078693;28;20126;-78
2022/07/18 10:07:58;;;;;;;4.78;2.85;;;26.80;43.60;;;;;;5078557;28;20148;-78
2022/07/18 10:10:24;;;;;;;6.03;2.80;;;26.80;43.50;;;;;;5078841;28;20071;-77
2022/07/18 10:12:59;;;;;;;7.13;3.45;;;26.90;43.40;;;;;;5112210;28;20051;-77
2022/07/18 10:15:32;;;;;;;5.55;2.97;;;27.00;43.20;;;;;;5078470;28;20074;-77
2022/07/18 10:17:58;;;;;;;3.63;2.20;;;27.20;43.30;;;;;;5078758;28;20082;-77
2022/07/18 10:20:37;;;;;;;4.20;2.42;;;27.30;40.70;;;;;;5112203;28;20050;-78
2022/07/18 10:23:24;;;;;;;4.68;2.40;;;27.50;39.00;;;;;;5078402;28;20040;-78
2022/07/18 10:26:13;;;;;;;9.15;2.97;;;27.50;40.10;;;;;;5108545;28;20566;-78
2022/07/18 10:28:57;;;;;;;7.30;3.22;;;27.60;40.50;;;;;;5108663;28;20087;-78
2022/07/18 10:31:24;;;;;;;5.60;2.95;;;27.60;41.40;;;;;;5074881;28;20074;-77
2022/07/18 10:33:50;;;;;;;5.05;2.58;;;27.80;42.10;;;;;;5108766;28;20044;-77
2022/07/18 10:36:18;;;;;;;4.38;2.67;;;27.80;41.80;;;;;;5074856;28;20483;-80
2022/07/18 10:39:05;;;;;;;8.57;3.08;;;27.70;41.30;;;;;;5108812;28;20048;-78
2022/07/18 10:41:30;;;;;;;6.07;2.42;;;27.70;41.90;;;;;;5108917;28;20050;-77
2022/07/18 10:43:56;;;;;;;8.30;2.38;;;27.70;40.70;;;;;;5108568;28;20446;-78
2022/07/18 10:46:22;;;;;;;5.07;3.45;;;27.70;41.30;;;;;;5108564;28;20044;-78
2022/07/18 10:48:50;;;;;;;3.88;2.33;;;27.80;40.50;;;;;;5108382;28;20048;-79
2022/07/18 10:51:16;;;;;;;5.35;2.80;;;27.70;40.50;;;;;;5108726;28;20036;-78
2022/07/18 10:54:00;;;;;;;4.43;2.10;;;27.80;40.00;;;;;;5108519;28;20040;-78
2022/07/18 10:56:29;;;;;;;5.72;2.10;;;27.90;40.50;;;;;;5077673;28;20036;-77
2022/07/18 10:59:17;;;;;;;4.38;3.15;;;28.00;39.30;;;;;;5112738;28;20492;-78
2022/07/18 11:01:53;;;;;;;4.88;2.63;;;28.20;41.30;;;;;;5112779;28;20435;-77
2022/07/18 11:04:33;;;;;;;5.03;2.47;;;28.20;40.40;;;;;;5095431;28;20040;-77
2022/07/18 11:07:17;;;;;;;4.25;2.38;;;28.20;39.40;;;;;;5112331;28;20105;-77
2022/07/18 11:09:47;;;;;;;3.65;2.40;;;27.90;38.80;;;;;;5078387;28;20036;-77
2022/07/18 11:12:27;;;;;;;6.70;2.65;;;27.80;39.90;;;;;;5112282;28;20039;-77
2022/07/18 11:15:13;;;;;;;6.32;2.50;;;27.80;39.60;;;;;;5112466;28;20075;-77
2022/07/18 11:17:51;;;;;;;5.40;2.30;;;27.60;39.10;;;;;;5112130;28;20071;-78
2022/07/18 11:20:26;;;;;;;6.15;3.00;;;27.60;39.10;;;;;;5112005;28;20032;-78
2022/07/18 11:22:51;;;;;;;5.28;2.53;;;27.50;38.60;;;;;;5078156;28;20040;-77
2022/07/18 11:25:18;;;;;;;3.83;2.15;;;27.40;39.40;;;;;;5061335;28;20044;-78
2022/07/18 11:27:44;;;;;;;4.90;2.72;;;27.40;39.20;;;;;;5112036;28;20426;-78
2022/07/18 11:30:16;;;;;;;5.32;2.70;;;27.40;39.10;;;;;;5112277;28;20127;-77
2022/07/18 11:32:41;;;;;;;5.80;2.63;;;27.40;37.80;;;;;;5078882;28;20123;-78
2022/07/18 11:35:08;;;;;;;6.60;2.65;;;27.30;38.80;;;;;;5111884;28;20068;-78
2022/07/18 11:37:36;;;;;;;5.38;2.70;;;27.40;39.00;;;;;;5112063;28;20471;-77
2022/07/18 11:40:08;;;;;;;4.13;2.90;;;27.40;39.00;;;;;;5077993;28;20090;-77
2022/07/18 11:42:38;;;;;;;5.22;2.70;;;27.40;38.80;;;;;;5111703;28;20040;-78
2022/07/18 11:45:06;;;;;;;5.85;2.83;;;27.50;38.90;;;;;;5111677;28;20075;-77
2022/07/18 11:47:47;;;;;;;5.22;2.90;;;27.50;38.40;;;;;;5111610;28;20101;-77
2022/07/18 11:50:14;;;;;;;5.45;3.03;;;27.50;39.30;;;;;;5094549;28;20071;-77
2022/07/18 11:52:40;;;;;;;4.80;3.10;;;27.60;39.10;;;;;;5077811;28;20373;-78
2022/07/18 11:55:06;;;;;;;4.50;2.95;;;27.60;38.90;;;;;;5111296;28;20040;-77
2022/07/18 11:57:33;;;;;;;6.95;3.85;;;27.70;38.40;;;;;;5094512;28;20078;-78
2022/07/18 12:00:00;;;;;;;10.18;3.47;;;27.60;38.80;;;;;;5077558;28;20044;-77
2022/07/18 12:03:03;;;;;;;10.00;3.78;;;27.60;39.10;;;;;;5111166;28;20048;-77
2022/07/18 12:05:38;;;;;;;5.07;3.10;;;27.70;39.80;;;;;;5077048;28;20058;-77
2022/07/18 12:08:36;;;;;;;4.28;3.22;;;27.70;40.10;;;;;;5111182;28;20044;-77
2022/07/18 12:11:14;;;;;;;5.22;3.35;;;27.90;39.70;;;;;;5111595;28;20051;-77
2022/07/18 12:13:52;;;;;;;9.70;3.50;;;28.10;40.10;;;;;;5111133;28;20129;-77
2022/07/18 12:16:32;;;;;;;4.75;3.40;;;28.30;40.20;;;;;;5111232;28;20133;-77
2022/07/18 12:19:12;;;;;;;6.05;3.33;;;28.60;39.10;;;;;;5110998;28;20149;-77
2022/07/18 12:21:46;;;;;;;5.93;3.63;;;28.90;39.20;;;;;;5111009;28;20043;-76
2022/07/18 12:24:18;;;;;;;6.75;3.20;;;29.30;37.30;;;;;;5110804;28;20501;-76
2022/07/18 12:26:44;;;;;;;4.88;3.20;;;29.40;37.10;;;;;;5076736;28;20075;-76
2022/07/18 12:29:10;;;;;;;6.72;3.40;;;29.40;36.40;;;;;;5110889;28;20500;-76
2022/07/18 12:31:37;;;;;;;4.72;3.00;;;29.30;36.50;;;;;;5110924;28;20040;-77
2022/07/18 12:34:10;;;;;;;5.55;3.55;;;28.90;36.60;;;;;;5110832;28;20039;-76
2022/07/18 12:36:52;;;;;;;5.68;3.30;;;28.70;37.30;;;;;;5076810;28;20476;-77
2022/07/18 12:39:32;;;;;;;4.97;3.10;;;28.50;37.70;;;;;;5076885;28;20043;-76
2022/07/18 12:42:00;;;;;;;4.03;2.72;;;28.20;38.10;;;;;;5110463;28;20039;-76
2022/07/18 12:44:27;;;;;;;5.32;2.70;;;28.20;38.80;;;;;;5110510;28;20512;-76
2022/07/18 12:46:53;;;;;;;3.83;2.67;;;28.00;39.40;;;;;;5076355;28;20047;-76
2022/07/18 12:49:19;;;;;;;3.80;2.63;;;28.00;39.80;;;;;;5076457;28;20052;-76